createdAt,value
2022-11-26T00:02:24.012Z,90.71
2022-11-26T00:04:52.244Z,90.63
2022-11-26T00:07:23.529Z,90.22
2022-11-26T00:09:50.515Z,89.80
2022-11-26T00:12:22.226Z,90.32
2022-11-26T00:14:49.462Z,89.91
2022-11-26T00:17:17.816Z,89.71
2022-11-26T00:19:46.337Z,90.27
2022-11-26T00:22:31.150Z,90.29
2022-11-26T00:24:58.660Z,90.13
2022-11-26T00:27:28.260Z,89.82
2022-11-26T00:29:56.036Z,89.88
2022-11-26T00:32:25.768Z,90.08
2022-11-26T00:34:53.752Z,89.91
2022-11-26T00:37:28.054Z,90.91
2022-11-26T00:39:56.968Z,90.70
2022-11-26T00:42:24.176Z,90.60
2022-11-26T00:44:52.540Z,90.11
2022-11-26T00:47:19.383Z,90.75
2022-11-26T00:49:46.177Z,90.64
2022-11-26T00:52:28.355Z,90.76
2022-11-26T00:54:55.660Z,90.04
2022-11-26T00:57:22.577Z,90.10
2022-11-26T00:59:49.739Z,90.66
2022-11-26T01:02:17.949Z,90.56
2022-11-26T01:04:44.864Z,90.32
2022-11-26T01:07:11.920Z,89.52
2022-11-26T01:09:39.039Z,89.88
2022-11-26T01:12:12.633Z,89.92
2022-11-26T01:14:40.231Z,89.16
2022-11-26T01:17:12.050Z,89.47
2022-11-26T01:19:40.669Z,89.70
2022-11-26T01:22:20.219Z,89.30
2022-11-26T01:24:47.483Z,89.70
2022-11-26T01:27:14.892Z,90.50
2022-11-26T01:29:41.857Z,90.95
2022-11-26T01:32:10.274Z,91.22
2022-11-26T01:34:37.591Z,91.13
2022-11-26T01:37:12.636Z,91.29
2022-11-26T01:39:40.691Z,90.86
2022-11-26T01:42:25.143Z,90.62
2022-11-26T01:44:52.565Z,90.51
2022-11-26T01:47:24.108Z,90.19
2022-11-26T01:50:49.217Z,90.63
2022-11-26T01:53:30.027Z,90.83
2022-11-26T01:56:01.721Z,91.05
2022-11-26T01:58:36.905Z,91.05
2022-11-26T02:01:06.595Z,91.79
2022-11-26T02:03:42.826Z,92.58
2022-11-26T02:06:17.515Z,92.67
2022-11-26T02:08:47.156Z,91.74
2022-11-26T02:11:18.089Z,92.37
2022-11-26T02:13:49.406Z,91.87
2022-11-26T02:16:36.458Z,92.37
2022-11-26T02:20:03.476Z,92.01
2022-11-26T02:23:02.097Z,91.72
2022-11-26T02:25:59.785Z,91.02
2022-11-26T02:29:04.461Z,91.59
2022-11-26T02:31:45.809Z,91.07
2022-11-26T02:34:21.600Z,91.02
2022-11-26T02:36:56.758Z,91.12
2022-11-26T02:39:28.268Z,91.38
2022-11-26T02:41:58.540Z,91.24
2022-11-26T02:44:31.016Z,91.30
2022-11-26T02:47:06.851Z,91.19
2022-11-26T02:49:38.209Z,91.84
2022-11-26T02:52:09.785Z,91.70
2022-11-26T02:54:39.307Z,91.15
2022-11-26T02:57:13.333Z,90.84
2022-11-26T02:59:41.771Z,91.26
2022-11-26T03:02:18.788Z,90.68
2022-11-26T03:04:53.877Z,90.61
2022-11-26T03:07:21.634Z,90.52
2022-11-26T03:09:54.577Z,91.42
2022-11-26T03:12:22.737Z,91.38
2022-11-26T03:14:50.212Z,91.50
2022-11-26T03:17:18.684Z,91.61
2022-11-26T03:19:46.297Z,91.53
2022-11-26T03:22:14.760Z,90.69
2022-11-26T03:24:42.130Z,90.79
2022-11-26T03:27:09.507Z,90.85
2022-11-26T03:29:36.466Z,90.41
2022-11-26T03:32:03.978Z,90.49
2022-11-26T03:34:32.640Z,90.11
2022-11-26T03:36:59.906Z,90.33
2022-11-26T03:39:27.120Z,90.56
2022-11-26T03:41:53.963Z,91.49
2022-11-26T03:44:21.145Z,91.21
2022-11-26T03:46:48.204Z,90.82
2022-11-26T03:49:15.070Z,90.87
2022-11-26T03:51:43.488Z,91.15
2022-11-26T03:54:11.245Z,91.44
2022-11-26T03:56:38.336Z,91.37
2022-11-26T03:59:05.352Z,91.17
2022-11-26T04:01:32.834Z,91.09
2022-11-26T04:03:59.859Z,92.25
2022-11-26T04:06:27.085Z,91.91
2022-11-26T04:08:55.397Z,92.50
2022-11-26T04:11:22.372Z,92.56
2022-11-26T04:13:49.408Z,92.02
2022-11-26T04:16:16.508Z,92.34
2022-11-26T04:18:43.635Z,91.87
2022-11-26T04:21:11.040Z,91.70
2022-11-26T04:23:37.888Z,92.00
2022-11-26T04:26:06.410Z,91.83
2022-11-26T04:28:33.364Z,92.37
2022-11-26T04:31:00.603Z,91.58
2022-11-26T04:33:27.536Z,91.94
2022-11-26T04:35:55.421Z,91.70
2022-11-26T04:38:25.773Z,91.77
2022-11-26T04:40:53.793Z,91.91
2022-11-26T04:43:22.055Z,91.87
2022-11-26T04:45:49.359Z,91.32
2022-11-26T04:48:16.252Z,91.33
2022-11-26T04:50:43.136Z,90.95
2022-11-26T04:53:10.511Z,91.36
2022-11-26T04:55:37.403Z,91.93
2022-11-26T04:58:04.285Z,92.01
2022-11-26T05:00:32.525Z,93.05
2022-11-26T05:02:59.667Z,93.28
2022-11-26T05:05:26.847Z,93.16
2022-11-26T05:07:53.681Z,92.30
2022-11-26T05:10:20.744Z,93.02
2022-11-26T05:12:47.561Z,92.92
2022-11-26T05:15:14.377Z,92.43
2022-11-26T05:17:42.909Z,91.44
2022-11-26T05:20:11.218Z,91.87
2022-11-26T05:22:38.274Z,92.51
2022-11-26T05:25:06.050Z,92.40
2022-11-26T05:27:33.336Z,92.63
2022-11-26T05:30:00.238Z,93.55
2022-11-26T05:32:27.519Z,93.45
2022-11-26T05:35:00.040Z,93.29
2022-11-26T05:37:27.773Z,92.66
2022-11-26T05:39:54.583Z,91.79
2022-11-26T05:42:21.657Z,91.99
2022-11-26T05:44:48.580Z,92.66
2022-11-26T05:47:15.724Z,92.45
2022-11-26T05:49:42.800Z,93.13
2022-11-26T05:52:10.961Z,93.41
2022-11-26T05:54:38.153Z,93.18
2022-11-26T05:57:05.207Z,93.37
2022-11-26T05:59:32.035Z,92.53
2022-11-26T06:01:59.143Z,92.04
2022-11-26T06:04:26.083Z,92.60
2022-11-26T06:06:53.163Z,91.64
2022-11-26T06:09:21.659Z,91.84
2022-11-26T06:11:49.216Z,91.16
2022-11-26T06:14:16.575Z,92.66
2022-11-26T06:16:43.628Z,92.09
2022-11-26T06:19:11.613Z,92.29
2022-11-26T06:21:38.623Z,91.17
2022-11-26T06:24:06.461Z,92.23
2022-11-26T06:26:34.667Z,92.76
2022-11-26T06:29:01.703Z,92.91
2022-11-26T06:31:28.641Z,92.81
2022-11-26T06:33:56.743Z,93.38
2022-11-26T06:36:24.214Z,93.08
2022-11-26T06:38:51.300Z,92.71
2022-11-26T06:41:18.229Z,92.42
2022-11-26T06:43:46.825Z,92.65
2022-11-26T06:46:14.321Z,91.96
2022-11-26T06:48:41.631Z,92.10
2022-11-26T06:51:12.264Z,92.50
2022-11-26T06:53:40.235Z,92.71
2022-11-26T06:56:16.566Z,92.79
2022-11-26T06:58:47.522Z,92.28
2022-11-26T07:01:17.842Z,92.79
2022-11-26T07:03:45.132Z,92.32
2022-11-26T07:06:17.669Z,92.17
2022-11-26T07:08:45.425Z,91.32
2022-11-26T07:11:12.675Z,90.48
2022-11-26T07:13:39.781Z,90.49
2022-11-26T07:16:09.038Z,89.36
2022-11-26T07:18:36.630Z,89.28
2022-11-26T07:21:09.605Z,89.54
2022-11-26T07:23:36.736Z,89.56
2022-11-26T07:26:06.351Z,89.48
2022-11-26T07:28:34.868Z,88.51
2022-11-26T07:31:03.370Z,89.07
2022-11-26T07:33:32.028Z,88.76
2022-11-26T07:36:00.129Z,89.54
2022-11-26T07:38:27.421Z,90.25
2022-11-26T07:40:55.109Z,92.33
2022-11-26T07:43:22.145Z,91.63
2022-11-26T07:45:49.277Z,91.76
2022-11-26T07:48:17.077Z,91.18
2022-11-26T07:50:45.826Z,90.55
2022-11-26T07:53:13.559Z,90.04
2022-11-26T07:55:41.198Z,90.09
2022-11-26T07:58:08.041Z,89.96
2022-11-26T08:00:34.973Z,91.81
2022-11-26T08:03:01.952Z,90.51
2022-11-26T08:05:29.124Z,90.30
2022-11-26T08:07:57.305Z,90.41
2022-11-26T08:10:24.394Z,90.82
2022-11-26T08:12:51.202Z,90.31
2022-11-26T08:15:18.516Z,89.07
2022-11-26T08:17:45.285Z,88.22
2022-11-26T08:20:12.594Z,87.88
2022-11-26T08:22:39.502Z,86.72
2022-11-26T08:25:09.621Z,85.75
2022-11-26T08:27:36.925Z,87.50
2022-11-26T08:30:05.224Z,88.08
2022-11-26T08:32:32.324Z,88.22
2022-11-26T08:34:59.171Z,88.35
2022-11-26T08:37:26.309Z,88.57
2022-11-26T08:39:53.104Z,89.00
2022-11-26T08:42:21.479Z,89.85
2022-11-26T08:44:48.367Z,89.25
2022-11-26T08:47:15.467Z,88.41
2022-11-26T08:49:43.388Z,86.96
2022-11-26T08:52:10.475Z,86.66
2022-11-26T08:54:41.994Z,86.67
2022-11-26T08:57:11.779Z,85.58
2022-11-26T08:59:39.959Z,85.61
2022-11-26T09:02:09.835Z,85.20
2022-11-26T09:04:37.375Z,84.21
2022-11-26T09:07:04.840Z,85.06
2022-11-26T09:09:31.668Z,84.27
2022-11-26T09:12:00.901Z,83.51
2022-11-26T09:14:34.439Z,83.60
2022-11-26T09:17:03.096Z,83.83
2022-11-26T09:19:30.717Z,83.60
2022-11-26T09:21:59.956Z,81.81
2022-11-26T09:24:26.835Z,81.48
2022-11-26T09:26:53.750Z,81.09
2022-11-26T09:29:23.562Z,80.72
2022-11-26T09:34:39.663Z,79.77
2022-11-26T09:37:06.856Z,81.54
2022-11-26T09:39:33.915Z,80.13
2022-11-26T09:42:06.780Z,81.02
2022-11-26T09:44:53.503Z,79.51
2022-11-26T09:47:23.815Z,78.97
2022-11-26T09:50:06.371Z,73.78
2022-11-26T09:52:40.404Z,70.56
2022-11-26T09:55:16.881Z,68.64
2022-11-26T09:57:51.449Z,72.73
2022-11-26T10:00:26.512Z,75.21
2022-11-26T10:02:56.791Z,72.81
2022-11-26T10:05:42.260Z,68.09
2022-11-26T10:08:37.053Z,62.56
2022-11-26T10:11:18.451Z,58.20
2022-11-26T10:13:57.605Z,54.76
2022-11-26T10:16:38.793Z,50.00
2022-11-26T10:19:18.488Z,49.89
2022-11-26T10:22:00.111Z,48.69
2022-11-26T10:24:33.738Z,48.67
2022-11-26T10:27:10.497Z,47.00
2022-11-26T10:29:42.980Z,48.72
2022-11-26T10:32:18.323Z,53.24
2022-11-26T10:34:51.145Z,57.34
2022-11-26T10:37:22.804Z,59.78
2022-11-26T10:40:01.026Z,61.86
2022-11-26T10:42:41.143Z,64.48
2022-11-26T10:45:21.409Z,67.40
2022-11-26T10:47:48.564Z,71.56
2022-11-26T10:53:22.037Z,71.82
2022-11-26T10:55:51.821Z,72.17
2022-11-26T10:58:23.971Z,71.81
2022-11-26T11:01:02.215Z,71.99
2022-11-26T11:04:05.970Z,71.89
2022-11-26T11:06:38.338Z,72.44
2022-11-26T11:09:27.133Z,72.35
2022-11-26T11:12:23.531Z,71.93
2022-11-26T11:14:52.086Z,71.82
2022-11-26T11:17:30.966Z,71.49
2022-11-26T11:20:21.323Z,72.87
2022-11-26T11:22:58.140Z,74.41
2022-11-26T11:25:31.261Z,75.08
2022-11-26T11:28:11.767Z,74.83
2022-11-26T11:30:42.279Z,75.75
2022-11-26T11:33:18.801Z,76.35
2022-11-26T11:35:59.408Z,77.72
2022-11-26T11:38:29.747Z,77.69
2022-11-26T11:41:04.343Z,78.45
2022-11-26T11:43:36.478Z,79.54
2022-11-26T11:46:42.240Z,79.57
2022-11-26T11:49:25.902Z,80.96
2022-11-26T11:52:15.965Z,80.54
2022-11-26T11:54:58.020Z,81.12
2022-11-26T11:57:55.600Z,82.28
2022-11-26T12:00:32.709Z,81.94
2022-11-26T12:03:48.633Z,83.72
2022-11-26T12:06:32.079Z,83.26
2022-11-26T12:09:13.054Z,83.10
2022-11-26T12:11:56.517Z,82.73
2022-11-26T12:14:35.971Z,82.80
2022-11-26T12:17:14.563Z,83.12
2022-11-26T12:19:50.671Z,82.39
2022-11-26T12:22:23.587Z,80.84
2022-11-26T12:24:59.726Z,81.18
2022-11-26T12:27:36.852Z,81.54
2022-11-26T12:30:12.756Z,80.57
2022-11-26T12:32:51.972Z,79.26
2022-11-26T12:35:30.102Z,78.95
2022-11-26T12:38:02.593Z,76.73
2022-11-26T12:40:37.454Z,76.63
2022-11-26T12:43:14.145Z,78.52
2022-11-26T12:45:54.891Z,77.52
2022-11-26T12:48:38.715Z,77.15
2022-11-26T12:51:24.106Z,77.74
2022-11-26T12:54:06.616Z,77.11
2022-11-26T12:56:44.770Z,76.90
2022-11-26T12:59:26.229Z,75.91
2022-11-26T13:01:54.906Z,75.67
2022-11-26T13:04:41.468Z,76.87
2022-11-26T13:07:33.290Z,76.21
2022-11-26T13:10:21.008Z,77.33
2022-11-26T13:13:01.432Z,75.91
2022-11-26T13:15:37.622Z,75.74
2022-11-26T13:18:16.915Z,76.15
2022-11-26T13:21:09.983Z,75.90
2022-11-26T13:24:01.949Z,74.43
2022-11-26T13:27:06.373Z,75.27
2022-11-26T13:30:04.384Z,74.07
2022-11-26T13:33:31.681Z,74.56
2022-11-26T13:36:37.810Z,74.62
2022-11-26T13:39:37.812Z,75.23
2022-11-26T13:42:46.139Z,74.85
2022-11-26T13:45:55.654Z,74.12
2022-11-26T13:48:35.659Z,72.27
2022-11-26T13:51:14.348Z,70.33
2022-11-26T13:53:50.243Z,69.83
2022-11-26T13:56:25.007Z,69.80
2022-11-26T13:58:58.710Z,69.88
2022-11-26T14:01:33.107Z,69.97
2022-11-26T14:04:02.381Z,69.57
2022-11-26T14:06:29.663Z,69.48
2022-11-26T14:08:57.161Z,68.40
2022-11-26T14:11:54.438Z,68.65
2022-11-26T14:14:34.617Z,69.17
2022-11-26T14:17:14.899Z,70.21
2022-11-26T14:20:10.034Z,72.02
2022-11-26T14:22:37.440Z,72.26
2022-11-26T14:25:09.807Z,73.65
2022-11-26T14:27:43.321Z,73.59
2022-11-26T14:30:31.014Z,74.69
2022-11-26T14:33:13.819Z,75.09
2022-11-26T14:35:54.914Z,75.04
2022-11-26T14:38:28.429Z,75.83
2022-11-26T14:40:59.548Z,76.65
2022-11-26T14:43:27.912Z,77.15
2022-11-26T14:46:12.426Z,77.43
2022-11-26T14:48:44.356Z,77.59
2022-11-26T14:55:24.434Z,78.62
2022-11-26T14:57:57.441Z,78.65
2022-11-26T15:00:39.571Z,79.12
2022-11-26T15:03:23.956Z,79.39
2022-11-26T15:05:51.362Z,80.25
2022-11-26T15:08:24.119Z,80.45
2022-11-26T15:10:55.591Z,80.23
2022-11-26T15:13:31.090Z,80.52
2022-11-26T15:16:01.789Z,81.29
2022-11-26T15:18:34.141Z,81.38
2022-11-26T15:21:03.696Z,81.40
2022-11-26T15:23:38.156Z,81.75
2022-11-26T15:26:06.543Z,81.48
2022-11-26T15:28:38.312Z,82.13
2022-11-26T15:31:06.509Z,82.09
2022-11-26T15:33:36.189Z,82.28
2022-11-26T15:36:05.412Z,83.16
2022-11-26T15:38:36.667Z,83.70
2022-11-26T15:41:07.919Z,84.19
2022-11-26T15:43:42.240Z,85.45
2022-11-26T15:46:18.512Z,85.26
2022-11-26T15:48:52.389Z,85.10
2022-11-26T15:51:32.202Z,85.44
2022-11-26T15:54:15.927Z,84.68
2022-11-26T15:56:43.075Z,85.04
2022-11-26T15:59:16.882Z,84.69
2022-11-26T16:01:46.365Z,86.17
2022-11-26T16:04:39.920Z,85.82
2022-11-26T16:07:15.896Z,86.46
2022-11-26T16:09:45.483Z,86.44
2022-11-26T16:12:29.832Z,86.48
2022-11-26T16:15:19.851Z,85.99
2022-11-26T16:17:49.372Z,86.06
2022-11-26T16:20:20.066Z,86.43
2022-11-26T16:22:51.063Z,85.59
2022-11-26T16:25:26.629Z,86.28
2022-11-26T16:28:05.927Z,85.77
2022-11-26T16:30:33.230Z,85.33
2022-11-26T16:33:00.297Z,85.27
2022-11-26T16:35:45.233Z,85.78
2022-11-26T16:38:19.379Z,85.74
2022-11-26T16:40:48.141Z,85.19
2022-11-26T16:43:15.310Z,84.91
2022-11-26T16:45:42.709Z,85.86
2022-11-26T16:48:23.170Z,85.74
2022-11-26T16:50:50.378Z,85.41
2022-11-26T16:53:17.388Z,85.76
2022-11-26T16:55:44.701Z,86.01
2022-11-26T16:58:27.699Z,85.79
2022-11-26T17:00:55.249Z,85.76
2022-11-26T17:03:22.987Z,85.39
2022-11-26T17:05:55.680Z,85.53
2022-11-26T17:08:23.422Z,85.92
2022-11-26T17:10:50.311Z,86.40
2022-11-26T17:13:19.268Z,86.15
2022-11-26T17:15:46.719Z,86.79
2022-11-26T17:18:20.184Z,86.07
2022-11-26T17:20:47.412Z,86.89
2022-11-26T17:23:15.212Z,87.04
2022-11-26T17:25:45.070Z,87.98
2022-11-26T17:28:13.845Z,87.61
2022-11-26T17:30:43.921Z,87.30
2022-11-26T17:33:11.513Z,87.73
2022-11-26T17:35:39.015Z,86.82
2022-11-26T17:38:14.648Z,86.79
2022-11-26T17:40:42.235Z,86.55
2022-11-26T17:43:09.497Z,87.07
2022-11-26T17:45:36.747Z,86.53
2022-11-26T17:48:06.304Z,86.70
2022-11-26T17:50:34.422Z,86.93
2022-11-26T17:53:01.273Z,86.39
2022-11-26T17:55:28.192Z,87.10
2022-11-26T17:57:55.620Z,86.32
2022-11-26T18:00:28.590Z,87.13
2022-11-26T18:02:56.769Z,87.11
2022-11-26T18:05:25.481Z,86.98
2022-11-26T18:07:52.619Z,86.10
2022-11-26T18:10:22.750Z,86.04
2022-11-26T18:12:53.480Z,86.48
2022-11-26T18:15:23.751Z,86.61
2022-11-26T18:17:54.043Z,86.96
2022-11-26T18:20:25.971Z,86.66
2022-11-26T18:22:55.718Z,87.12
2022-11-26T18:25:23.432Z,86.50
2022-11-26T18:27:51.181Z,87.07
2022-11-26T18:30:19.312Z,87.62
2022-11-26T18:32:46.496Z,89.22
2022-11-26T18:35:13.545Z,89.66
2022-11-26T18:37:42.499Z,88.90
2022-11-26T18:40:14.021Z,89.05
2022-11-26T18:42:41.466Z,88.81
2022-11-26T18:45:13.780Z,88.49
2022-11-26T18:47:40.681Z,88.37
2022-11-26T18:50:08.781Z,87.88
2022-11-26T18:52:36.102Z,87.89
2022-11-26T18:55:05.227Z,87.68
2022-11-26T18:57:32.331Z,87.60
2022-11-26T18:59:59.162Z,87.37
2022-11-26T19:02:27.142Z,87.31
2022-11-26T19:04:53.958Z,87.42
2022-11-26T19:07:20.921Z,87.69
2022-11-26T19:09:48.249Z,87.82
2022-11-26T19:12:16.509Z,87.57
2022-11-26T19:14:43.716Z,87.30
2022-11-26T19:17:10.556Z,86.94
2022-11-26T19:19:38.590Z,87.03
2022-11-26T19:22:05.622Z,87.61
2022-11-26T19:24:32.467Z,87.20
2022-11-26T19:26:59.661Z,86.93
2022-11-26T19:29:27.896Z,87.20
2022-11-26T19:31:54.714Z,87.25
2022-11-26T19:34:21.593Z,87.77
2022-11-26T19:36:49.182Z,88.11
2022-11-26T19:39:17.667Z,88.06
2022-11-26T19:41:44.766Z,89.12
2022-11-26T19:44:12.294Z,89.19
2022-11-26T19:46:40.974Z,89.42
2022-11-26T19:49:12.252Z,88.29
2022-11-26T19:51:40.350Z,89.04
2022-11-26T19:54:07.863Z,89.03
2022-11-26T19:56:35.525Z,90.03
2022-11-26T19:59:02.952Z,90.32
2022-11-26T20:01:33.399Z,90.65
2022-11-26T20:04:04.684Z,90.38
2022-11-26T20:06:34.716Z,90.46
2022-11-26T20:09:04.710Z,89.36
2022-11-26T20:11:33.049Z,89.00
2022-11-26T20:14:00.153Z,88.55
2022-11-26T20:16:30.924Z,88.08
2022-11-26T20:19:01.663Z,87.75
2022-11-26T20:21:31.955Z,87.75
2022-11-26T20:24:02.471Z,87.93
2022-11-26T20:26:33.409Z,88.27
2022-11-26T20:29:04.129Z,87.90
2022-11-26T20:31:32.142Z,87.73
2022-11-26T20:34:03.616Z,87.26
2022-11-26T20:36:31.906Z,87.19
2022-11-26T20:39:01.938Z,87.28
2022-11-26T20:41:30.008Z,87.76
2022-11-26T20:43:59.448Z,87.52
2022-11-26T20:46:28.552Z,87.73
2022-11-26T20:48:56.455Z,88.23
2022-11-26T20:51:25.677Z,88.32
2022-11-26T20:53:53.487Z,88.59
2022-11-26T20:56:22.183Z,88.19
2022-11-26T20:58:51.051Z,87.92
2022-11-26T21:01:22.401Z,87.74
2022-11-26T21:03:50.357Z,87.26
2022-11-26T21:06:23.350Z,86.96
2022-11-26T21:08:56.251Z,87.42
2022-11-26T21:11:23.095Z,86.81
2022-11-26T21:13:51.007Z,86.24
2022-11-26T21:16:18.119Z,86.43
2022-11-26T21:18:45.897Z,86.55
2022-11-26T21:21:15.819Z,86.67
2022-11-26T21:23:44.818Z,87.30
2022-11-26T21:26:17.746Z,87.66
2022-11-26T21:28:49.325Z,87.77
2022-11-26T21:31:18.463Z,88.08
2022-11-26T21:33:46.787Z,88.23
2022-11-26T21:36:16.752Z,88.07
2022-11-26T21:38:49.150Z,88.14
2022-11-26T21:41:19.024Z,88.72
2022-11-26T21:43:47.543Z,89.14
2022-11-26T21:46:17.701Z,89.35
2022-11-26T21:48:45.208Z,90.27
2022-11-26T21:51:14.954Z,90.67
2022-11-26T21:53:42.865Z,91.19
2022-11-26T21:56:13.480Z,92.56
2022-11-26T21:58:42.442Z,93.35
2022-11-26T22:01:11.466Z,93.92
2022-11-26T22:03:39.220Z,94.27
2022-11-26T22:06:07.543Z,94.35
2022-11-26T22:08:35.158Z,94.25
2022-11-26T22:11:08.788Z,94.25
2022-11-26T22:13:35.894Z,94.10
2022-11-26T22:16:06.521Z,93.84
2022-11-26T22:18:36.074Z,93.51
2022-11-26T22:21:03.338Z,93.72
2022-11-26T22:23:30.406Z,93.23
2022-11-26T22:25:57.416Z,92.94
2022-11-26T22:28:29.725Z,93.98
2022-11-26T22:30:57.337Z,96.53
2022-11-26T22:33:25.632Z,97.25
2022-11-26T22:35:52.398Z,96.72
2022-11-26T22:38:19.377Z,96.74
2022-11-26T22:40:46.388Z,96.88
2022-11-26T22:43:13.131Z,97.00
2022-11-26T22:45:40.083Z,96.56
2022-11-26T22:48:07.260Z,96.61
2022-11-26T22:50:35.361Z,96.51
2022-11-26T22:53:02.582Z,96.39
2022-11-26T22:55:29.387Z,95.81
2022-11-26T22:57:56.253Z,96.36
2022-11-26T23:00:46.584Z,96.96
2022-11-26T23:03:14.297Z,97.09
2022-11-26T23:05:43.162Z,97.36
2022-11-26T23:08:11.400Z,97.58
2022-11-26T23:10:38.969Z,97.00
2022-11-26T23:13:08.131Z,96.97
2022-11-26T23:15:44.285Z,97.53
2022-11-26T23:18:14.371Z,97.71
2022-11-26T23:20:43.621Z,98.23
2022-11-26T23:23:10.645Z,97.93
2022-11-26T23:25:38.974Z,97.94
2022-11-26T23:28:06.730Z,97.33
2022-11-26T23:30:34.350Z,98.28
2022-11-26T23:33:01.293Z,99.12
2022-11-26T23:35:28.776Z,99.46
2022-11-26T23:37:57.029Z,99.28
2022-11-26T23:40:24.061Z,99.42
2022-11-26T23:42:51.122Z,99.82
2022-11-26T23:45:18.267Z,99.41
2022-11-26T23:47:45.149Z,99.44
2022-11-26T23:50:12.607Z,99.20
2022-11-26T23:52:39.512Z,99.00
2022-11-26T23:55:09.207Z,98.30
2022-11-26T23:57:36.789Z,97.50
